Note: Wind direction arrow are unfortunately not working and shows just north


Skjærhalden gjestehavn  Skjærhalden gjestehavn


Lynradar Scandinavia more information blitzortung!


Rain radar more information rain snow radar


Besøk Våre Andre vær websider:

Template documentation
and downloads

And another site



Oversvømmelse Fra: 22-05-2018 23:00 Til: 23-05-2018 22:59 advarsel for: Oversvømmelse Nivå: Gul info button
Skogbrann Fra: 22-05-2018 23:00 Til: 23-05-2018 22:59 advarsel for: Skogbrann Nivå: Gul info button

Værrapport fra de nærmeste flyplassene

   
ENRY - Rygge
Oppdatert: May 22 2018 3:50 pm
Klart  
Klart  
   Vind: Sør 4.1 m/s
Vind: Sør 4.1 m/s
Temperatur: 22°C
Duggpunkt: 6°C
Luftfuktighet: 36%
Lufttrykk: 1019 hPa
Sikt: More than 10 km
Detaljer skyer: Klart
ENRY 221350Z 19008KT CAVOK 22/06 Q1019
ENTO - Sandefjord
Oppdatert: Jan 1 1970 1:00 am
Oppdatert, se klokkeslett
  
  
   Vind: Stille
Vind: Stille
ENSN - Skien
Oppdatert: Nov 9 2015 9:50 am
Oppdatert, se klokkeslett
Klart  
Klart  
   Vind: SSV 5.1 m/s<br />Gust to 5.1 m/s
Vind: SSV 5.1 m/s
Gust to 5.1 m/s
Temperatur: 7°C
Wind Chill: 4°C
Duggpunkt: 3°C
Luftfuktighet: 76%
Lufttrykk: 1000 hPa
Sikt: More than 10 km
Detaljer skyer: Klart
ENSN 090850Z 20010G22KT 150V240 CAVOK 07/03 Q1000
ENGM - Oslo
Oppdatert: May 22 2018 3:50 pm
Klart  
Klart  
   Vind: varierende 2.1 m/s
Vind: varierende 2.1 m/s
Temperatur: 23°C
Duggpunkt: -2°C
Luftfuktighet: 19%
Lufttrykk: 1017 hPa
Sikt: More than 10 km
Detaljer skyer: Klart
ENGM 221350Z VRB04KT CAVOK 23/M02 Q1017 NOSIG
ESOK - Karlstad
Oppdatert: May 22 2018 3:50 pm
Klart  
Klart  
   Vind: Sør 3.1 m/s
Vind: Sør 3.1 m/s
Temperatur: 23°C
Duggpunkt: 1°C
Luftfuktighet: 23%
Lufttrykk: 1018 hPa
Sikt: More than 10 km
Detaljer skyer: Klart
ESOK 221350Z 18006KT 110V230 CAVOK 23/01 Q1018
ESST - Torsby
Oppdatert: May 22 2018 3:50 pm
Klart  
Klart  
   Vind: Sør 2.6 m/s
Vind: Sør 2.6 m/s
Temperatur: 24°C
Duggpunkt: 4°C
Luftfuktighet: 27%
Lufttrykk: 1017 hPa
Skyer: Klart
Sikt: More than 10 km
Detaljer skyer: Klart
ESST 221350Z AUTO 17005KT 140V210 9999 NCD 24/04 Q1017

Script utviklet av  Saratoga-weather.org Tilpasset for tamplaten av  Weerstation Leuven

Du finner stasjonens værinfo også på:

European Weather Network